sensor_id;sensor_type;location;lat;lon;timestamp;temperature;humidity
11446;DHT22;5779;64.178;15.432;2023-09-12T00:01:19;15.50;99.90
11446;DHT22;5779;64.178;15.432;2023-09-12T00:04:06;15.30;99.90
11446;DHT22;5779;64.178;15.432;2023-09-12T00:06:53;15.20;99.90
11446;DHT22;5779;64.178;15.432;2023-09-12T00:09:41;15.20;99.90
11446;DHT22;5779;64.178;15.432;2023-09-12T00:12:28;14.90;99.90
11446;DHT22;5779;64.178;15.432;2023-09-12T00:15:15;14.60;99.90
11446;DHT22;5779;64.178;15.432;2023-09-12T00:18:04;14.50;99.90
11446;DHT22;5779;64.178;15.432;2023-09-12T00:20:53;14.10;99.90
11446;DHT22;5779;64.178;15.432;2023-09-12T00:23:40;13.90;99.90
11446;DHT22;5779;64.178;15.432;2023-09-12T00:26:28;13.70;99.90
11446;DHT22;5779;64.178;15.432;2023-09-12T00:29:15;13.60;99.90
11446;DHT22;5779;64.178;15.432;2023-09-12T00:32:02;13.40;99.90
11446;DHT22;5779;64.178;15.432;2023-09-12T00:34:49;13.30;99.90
11446;DHT22;5779;64.178;15.432;2023-09-12T00:37:36;13.30;99.90
11446;DHT22;5779;64.178;15.432;2023-09-12T00:40:23;13.30;99.90
11446;DHT22;5779;64.178;15.432;2023-09-12T00:43:11;13.20;99.90
11446;DHT22;5779;64.178;15.432;2023-09-12T00:45:58;13.10;99.90
11446;DHT22;5779;64.178;15.432;2023-09-12T00:48:47;13.10;99.90
11446;DHT22;5779;64.178;15.432;2023-09-12T00:51:35;13.10;99.90
11446;DHT22;5779;64.178;15.432;2023-09-12T00:54:23;13.10;99.90
11446;DHT22;5779;64.178;15.432;2023-09-12T00:57:09;13.10;99.90
11446;DHT22;5779;64.178;15.432;2023-09-12T00:59:58;13.00;99.90
11446;DHT22;5779;64.178;15.432;2023-09-12T01:02:46;13.00;99.90
11446;DHT22;5779;64.178;15.432;2023-09-12T01:05:35;13.10;99.90
11446;DHT22;5779;64.178;15.432;2023-09-12T01:08:22;13.00;99.90
11446;DHT22;5779;64.178;15.432;2023-09-12T01:11:09;13.00;99.90
11446;DHT22;5779;64.178;15.432;2023-09-12T01:13:56;13.00;99.90
11446;DHT22;5779;64.178;15.432;2023-09-12T01:16:44;13.10;99.90
11446;DHT22;5779;64.178;15.432;2023-09-12T01:19:31;13.00;99.90
11446;DHT22;5779;64.178;15.432;2023-09-12T01:22:36;12.90;99.90
11446;DHT22;5779;64.178;15.432;2023-09-12T01:25:40;13.20;99.90
11446;DHT22;5779;64.178;15.432;2023-09-12T01:28:33;13.30;99.90
11446;DHT22;5779;64.178;15.432;2023-09-12T01:31:20;13.00;99.90
11446;DHT22;5779;64.178;15.432;2023-09-12T01:34:09;13.00;99.90
11446;DHT22;5779;64.178;15.432;2023-09-12T01:36:56;12.90;99.90
11446;DHT22;5779;64.178;15.432;2023-09-12T01:39:46;12.90;99.90
11446;DHT22;5779;64.178;15.432;2023-09-12T01:42:36;12.90;99.90
11446;DHT22;5779;64.178;15.432;2023-09-12T01:45:25;13.00;99.90
11446;DHT22;5779;64.178;15.432;2023-09-12T01:48:12;12.90;99.90
11446;DHT22;5779;64.178;15.432;2023-09-12T01:50:59;12.90;99.90
11446;DHT22;5779;64.178;15.432;2023-09-12T01:53:47;12.90;99.90
11446;DHT22;5779;64.178;15.432;2023-09-12T01:56:35;13.10;99.90
11446;DHT22;5779;64.178;15.432;2023-09-12T01:59:23;13.20;99.90
11446;DHT22;5779;64.178;15.432;2023-09-12T02:02:11;13.10;99.90
11446;DHT22;5779;64.178;15.432;2023-09-12T02:05:07;13.30;99.90
11446;DHT22;5779;64.178;15.432;2023-09-12T02:07:55;13.30;99.90
11446;DHT22;5779;64.178;15.432;2023-09-12T02:10:42;13.30;99.90
11446;DHT22;5779;64.178;15.432;2023-09-12T02:13:29;13.10;99.90
11446;DHT22;5779;64.178;15.432;2023-09-12T02:16:16;13.10;99.90
11446;DHT22;5779;64.178;15.432;2023-09-12T02:19:05;13.00;99.90
11446;DHT22;5779;64.178;15.432;2023-09-12T02:21:52;12.90;99.90
11446;DHT22;5779;64.178;15.432;2023-09-12T02:24:39;13.00;99.90
11446;DHT22;5779;64.178;15.432;2023-09-12T02:27:26;13.00;99.90
11446;DHT22;5779;64.178;15.432;2023-09-12T02:30:12;13.00;99.90
11446;DHT22;5779;64.178;15.432;2023-09-12T02:32:59;13.00;99.90
11446;DHT22;5779;64.178;15.432;2023-09-12T02:35:48;13.20;99.90
11446;DHT22;5779;64.178;15.432;2023-09-12T02:38:35;13.20;99.90
11446;DHT22;5779;64.178;15.432;2023-09-12T02:41:21;13.30;99.90
11446;DHT22;5779;64.178;15.432;2023-09-12T02:44:09;13.20;99.90
11446;DHT22;5779;64.178;15.432;2023-09-12T02:46:56;13.10;99.90
11446;DHT22;5779;64.178;15.432;2023-09-12T02:49:42;13.00;99.90
11446;DHT22;5779;64.178;15.432;2023-09-12T02:52:31;12.90;99.90
11446;DHT22;5779;64.178;15.432;2023-09-12T02:55:18;12.70;99.90
11446;DHT22;5779;64.178;15.432;2023-09-12T02:58:04;12.60;99.90
11446;DHT22;5779;64.178;15.432;2023-09-12T03:00:51;12.60;99.90
11446;DHT22;5779;64.178;15.432;2023-09-12T03:03:39;12.60;99.90
11446;DHT22;5779;64.178;15.432;2023-09-12T03:06:26;12.70;99.90
11446;DHT22;5779;64.178;15.432;2023-09-12T03:09:16;12.80;99.90
11446;DHT22;5779;64.178;15.432;2023-09-12T03:12:05;12.80;99.90
11446;DHT22;5779;64.178;15.432;2023-09-12T03:14:52;13.00;99.90
11446;DHT22;5779;64.178;15.432;2023-09-12T03:17:38;13.10;99.90
11446;DHT22;5779;64.178;15.432;2023-09-12T03:20:25;13.00;99.90
11446;DHT22;5779;64.178;15.432;2023-09-12T03:23:12;13.00;99.90
11446;DHT22;5779;64.178;15.432;2023-09-12T03:26:02;12.80;99.90
11446;DHT22;5779;64.178;15.432;2023-09-12T03:28:50;12.60;99.90
11446;DHT22;5779;64.178;15.432;2023-09-12T03:31:37;12.60;99.90
11446;DHT22;5779;64.178;15.432;2023-09-12T03:34:24;12.50;99.90
11446;DHT22;5779;64.178;15.432;2023-09-12T03:37:12;12.50;99.90
11446;DHT22;5779;64.178;15.432;2023-09-12T03:39:58;12.50;99.90
11446;DHT22;5779;64.178;15.432;2023-09-12T03:42:47;12.40;99.90
11446;DHT22;5779;64.178;15.432;2023-09-12T03:45:34;12.30;99.90
11446;DHT22;5779;64.178;15.432;2023-09-12T03:48:21;12.20;99.90
11446;DHT22;5779;64.178;15.432;2023-09-12T03:51:07;12.20;99.90
11446;DHT22;5779;64.178;15.432;2023-09-12T03:53:54;12.10;99.90
11446;DHT22;5779;64.178;15.432;2023-09-12T03:56:41;12.00;99.90
11446;DHT22;5779;64.178;15.432;2023-09-12T03:59:30;12.00;99.90
11446;DHT22;5779;64.178;15.432;2023-09-12T04:02:16;12.10;99.90
11446;DHT22;5779;64.178;15.432;2023-09-12T04:05:04;12.20;99.90
11446;DHT22;5779;64.178;15.432;2023-09-12T04:07:50;12.20;99.90
11446;DHT22;5779;64.178;15.432;2023-09-12T04:10:37;12.20;99.90
11446;DHT22;5779;64.178;15.432;2023-09-12T04:13:24;12.40;99.90
11446;DHT22;5779;64.178;15.432;2023-09-12T04:16:12;12.30;99.90
11446;DHT22;5779;64.178;15.432;2023-09-12T04:18:59;12.10;99.90
11446;DHT22;5779;64.178;15.432;2023-09-12T04:21:46;12.00;99.90
11446;DHT22;5779;64.178;15.432;2023-09-12T04:24:33;11.90;99.90
11446;DHT22;5779;64.178;15.432;2023-09-12T04:27:20;11.80;99.90
11446;DHT22;5779;64.178;15.432;2023-09-12T04:30:08;12.00;99.90
11446;DHT22;5779;64.178;15.432;2023-09-12T04:32:56;12.20;99.90
11446;DHT22;5779;64.178;15.432;2023-09-12T04:35:43;12.40;99.90
11446;DHT22;5779;64.178;15.432;2023-09-12T04:38:30;12.20;99.90
11446;DHT22;5779;64.178;15.432;2023-09-12T04:41:18;11.90;99.90
11446;DHT22;5779;64.178;15.432;2023-09-12T04:44:05;11.80;99.90
11446;DHT22;5779;64.178;15.432;2023-09-12T04:46:51;11.90;99.90
11446;DHT22;5779;64.178;15.432;2023-09-12T04:49:41;12.00;99.90
11446;DHT22;5779;64.178;15.432;2023-09-12T04:52:29;12.00;99.90
11446;DHT22;5779;64.178;15.432;2023-09-12T04:55:17;12.10;99.90
11446;DHT22;5779;64.178;15.432;2023-09-12T04:58:07;11.90;99.90
11446;DHT22;5779;64.178;15.432;2023-09-12T05:01:00;11.90;99.90
11446;DHT22;5779;64.178;15.432;2023-09-12T05:03:47;11.90;99.90
11446;DHT22;5779;64.178;15.432;2023-09-12T05:06:36;12.10;99.90
11446;DHT22;5779;64.178;15.432;2023-09-12T05:09:25;12.00;99.90
11446;DHT22;5779;64.178;15.432;2023-09-12T05:12:14;12.00;99.90
11446;DHT22;5779;64.178;15.432;2023-09-12T05:15:00;12.10;99.90
11446;DHT22;5779;64.178;15.432;2023-09-12T05:17:47;12.20;99.90
11446;DHT22;5779;64.178;15.432;2023-09-12T05:20:35;12.20;99.90
11446;DHT22;5779;64.178;15.432;2023-09-12T05:23:23;12.30;99.90
11446;DHT22;5779;64.178;15.432;2023-09-12T05:26:10;12.50;99.90
11446;DHT22;5779;64.178;15.432;2023-09-12T05:28:56;12.40;99.90
11446;DHT22;5779;64.178;15.432;2023-09-12T05:31:43;12.30;99.90
11446;DHT22;5779;64.178;15.432;2023-09-12T05:34:30;12.00;99.90
11446;DHT22;5779;64.178;15.432;2023-09-12T05:37:17;11.90;99.90
11446;DHT22;5779;64.178;15.432;2023-09-12T05:40:08;11.80;99.90
11446;DHT22;5779;64.178;15.432;2023-09-12T05:42:55;11.70;99.90
11446;DHT22;5779;64.178;15.432;2023-09-12T05:45:42;11.70;99.90
11446;DHT22;5779;64.178;15.432;2023-09-12T05:48:29;11.70;99.90
11446;DHT22;5779;64.178;15.432;2023-09-12T05:51:16;11.60;99.90
11446;DHT22;5779;64.178;15.432;2023-09-12T05:54:03;11.60;99.90
11446;DHT22;5779;64.178;15.432;2023-09-12T05:56:52;11.70;99.90
11446;DHT22;5779;64.178;15.432;2023-09-12T05:59:39;11.40;99.90
11446;DHT22;5779;64.178;15.432;2023-09-12T06:02:25;11.40;99.90
11446;DHT22;5779;64.178;15.432;2023-09-12T06:05:12;11.50;99.90
11446;DHT22;5779;64.178;15.432;2023-09-12T06:08:01;11.50;99.90
11446;DHT22;5779;64.178;15.432;2023-09-12T06:10:50;11.40;99.90
11446;DHT22;5779;64.178;15.432;2023-09-12T06:13:40;11.30;99.90
11446;DHT22;5779;64.178;15.432;2023-09-12T06:16:27;11.30;99.90
11446;DHT22;5779;64.178;15.432;2023-09-12T06:19:14;11.30;99.90
11446;DHT22;5779;64.178;15.432;2023-09-12T06:22:01;11.40;99.90
11446;DHT22;5779;64.178;15.432;2023-09-12T06:24:49;11.50;99.90
11446;DHT22;5779;64.178;15.432;2023-09-12T06:27:36;11.40;99.90
11446;DHT22;5779;64.178;15.432;2023-09-12T06:30:24;11.50;99.90
11446;DHT22;5779;64.178;15.432;2023-09-12T06:33:11;11.50;99.90
11446;DHT22;5779;64.178;15.432;2023-09-12T06:35:58;11.70;99.90
11446;DHT22;5779;64.178;15.432;2023-09-12T06:38:45;11.80;99.90
11446;DHT22;5779;64.178;15.432;2023-09-12T06:41:32;11.80;99.90
11446;DHT22;5779;64.178;15.432;2023-09-12T06:44:20;11.70;99.90
11446;DHT22;5779;64.178;15.432;2023-09-12T06:47:08;11.70;99.90
11446;DHT22;5779;64.178;15.432;2023-09-12T06:49:55;11.80;99.90
11446;DHT22;5779;64.178;15.432;2023-09-12T06:52:42;12.00;99.90
11446;DHT22;5779;64.178;15.432;2023-09-12T06:55:29;12.00;99.90
11446;DHT22;5779;64.178;15.432;2023-09-12T06:58:16;12.10;99.90
11446;DHT22;5779;64.178;15.432;2023-09-12T07:01:03;12.20;99.90
11446;DHT22;5779;64.178;15.432;2023-09-12T07:03:52;12.20;99.90
11446;DHT22;5779;64.178;15.432;2023-09-12T07:06:40;12.20;99.90
11446;DHT22;5779;64.178;15.432;2023-09-12T07:09:27;12.20;99.90
11446;DHT22;5779;64.178;15.432;2023-09-12T07:12:14;12.20;99.90
11446;DHT22;5779;64.178;15.432;2023-09-12T07:15:01;12.10;99.90
11446;DHT22;5779;64.178;15.432;2023-09-12T07:17:48;12.20;99.90
11446;DHT22;5779;64.178;15.432;2023-09-12T07:20:36;12.30;99.90
11446;DHT22;5779;64.178;15.432;2023-09-12T07:23:23;12.40;99.90
11446;DHT22;5779;64.178;15.432;2023-09-12T07:26:13;12.50;99.90
11446;DHT22;5779;64.178;15.432;2023-09-12T07:29:00;12.50;99.90
11446;DHT22;5779;64.178;15.432;2023-09-12T07:31:52;12.50;99.90
11446;DHT22;5779;64.178;15.432;2023-09-12T07:34:39;12.50;99.90
11446;DHT22;5779;64.178;15.432;2023-09-12T07:37:29;12.60;99.90
11446;DHT22;5779;64.178;15.432;2023-09-12T07:40:16;12.60;99.90
11446;DHT22;5779;64.178;15.432;2023-09-12T07:43:03;12.60;99.90
11446;DHT22;5779;64.178;15.432;2023-09-12T07:45:54;12.50;99.90
11446;DHT22;5779;64.178;15.432;2023-09-12T07:48:41;12.60;99.90
11446;DHT22;5779;64.178;15.432;2023-09-12T07:51:28;12.70;99.90
11446;DHT22;5779;64.178;15.432;2023-09-12T07:54:16;12.40;99.90
11446;DHT22;5779;64.178;15.432;2023-09-12T07:57:04;12.20;99.90
11446;DHT22;5779;64.178;15.432;2023-09-12T07:59:51;12.30;99.90
11446;DHT22;5779;64.178;15.432;2023-09-12T08:02:38;12.10;99.90
11446;DHT22;5779;64.178;15.432;2023-09-12T08:05:25;12.20;99.90
11446;DHT22;5779;64.178;15.432;2023-09-12T08:08:12;12.50;99.90
11446;DHT22;5779;64.178;15.432;2023-09-12T08:11:01;12.30;99.90
11446;DHT22;5779;64.178;15.432;2023-09-12T08:13:54;12.20;99.90
11446;DHT22;5779;64.178;15.432;2023-09-12T08:16:41;12.20;99.90
11446;DHT22;5779;64.178;15.432;2023-09-12T08:19:30;12.20;99.90
11446;DHT22;5779;64.178;15.432;2023-09-12T08:22:17;12.10;99.90
11446;DHT22;5779;64.178;15.432;2023-09-12T08:25:10;12.20;99.90
11446;DHT22;5779;64.178;15.432;2023-09-12T08:28:03;12.00;99.90
11446;DHT22;5779;64.178;15.432;2023-09-12T08:30:54;12.00;99.90
11446;DHT22;5779;64.178;15.432;2023-09-12T08:33:46;12.00;99.90
11446;DHT22;5779;64.178;15.432;2023-09-12T08:36:33;12.20;99.90
11446;DHT22;5779;64.178;15.432;2023-09-12T08:39:24;12.40;99.90
11446;DHT22;5779;64.178;15.432;2023-09-12T08:42:17;12.40;99.90
11446;DHT22;5779;64.178;15.432;2023-09-12T08:45:13;12.50;99.90
11446;DHT22;5779;64.178;15.432;2023-09-12T08:48:07;12.50;99.90
11446;DHT22;5779;64.178;15.432;2023-09-12T08:50:58;12.40;99.90
11446;DHT22;5779;64.178;15.432;2023-09-12T08:53:50;12.40;99.90
11446;DHT22;5779;64.178;15.432;2023-09-12T08:56:41;12.50;99.90
11446;DHT22;5779;64.178;15.432;2023-09-12T08:59:34;12.60;99.90
11446;DHT22;5779;64.178;15.432;2023-09-12T09:02:25;12.50;99.90
11446;DHT22;5779;64.178;15.432;2023-09-12T09:05:14;12.70;99.90
11446;DHT22;5779;64.178;15.432;2023-09-12T09:08:08;12.90;99.90
11446;DHT22;5779;64.178;15.432;2023-09-12T09:11:01;12.70;99.90
11446;DHT22;5779;64.178;15.432;2023-09-12T09:13:51;12.80;99.90
11446;DHT22;5779;64.178;15.432;2023-09-12T09:16:42;12.80;99.90
11446;DHT22;5779;64.178;15.432;2023-09-12T09:19:46;13.00;99.90
11446;DHT22;5779;64.178;15.432;2023-09-12T09:22:37;13.00;99.90
11446;DHT22;5779;64.178;15.432;2023-09-12T09:25:24;12.90;99.90
11446;DHT22;5779;64.178;15.432;2023-09-12T09:28:19;12.80;99.90
11446;DHT22;5779;64.178;15.432;2023-09-12T09:31:13;12.90;99.90
11446;DHT22;5779;64.178;15.432;2023-09-12T09:34:00;12.90;99.90
11446;DHT22;5779;64.178;15.432;2023-09-12T09:36:55;13.00;99.90
11446;DHT22;5779;64.178;15.432;2023-09-12T09:39:48;13.20;99.90
11446;DHT22;5779;64.178;15.432;2023-09-12T09:42:38;13.30;99.90
11446;DHT22;5779;64.178;15.432;2023-09-12T09:45:31;13.10;99.90
11446;DHT22;5779;64.178;15.432;2023-09-12T09:48:25;13.10;99.90
11446;DHT22;5779;64.178;15.432;2023-09-12T09:51:14;12.90;99.90
11446;DHT22;5779;64.178;15.432;2023-09-12T09:54:07;12.90;99.90
11446;DHT22;5779;64.178;15.432;2023-09-12T09:56:55;13.00;99.90
11446;DHT22;5779;64.178;15.432;2023-09-12T09:59:49;13.00;99.90
11446;DHT22;5779;64.178;15.432;2023-09-12T10:02:39;13.10;99.90
11446;DHT22;5779;64.178;15.432;2023-09-12T10:05:27;13.20;99.90
11446;DHT22;5779;64.178;15.432;2023-09-12T10:08:15;13.10;99.90
11446;DHT22;5779;64.178;15.432;2023-09-12T10:11:10;12.90;99.90
11446;DHT22;5779;64.178;15.432;2023-09-12T10:14:03;12.80;99.90
11446;DHT22;5779;64.178;15.432;2023-09-12T10:17:01;12.70;99.90
11446;DHT22;5779;64.178;15.432;2023-09-12T10:19:55;12.80;99.90
11446;DHT22;5779;64.178;15.432;2023-09-12T10:22:54;13.00;99.90
11446;DHT22;5779;64.178;15.432;2023-09-12T10:25:43;13.10;99.90
11446;DHT22;5779;64.178;15.432;2023-09-12T10:28:41;13.10;99.90
11446;DHT22;5779;64.178;15.432;2023-09-12T10:31:30;13.00;99.90
11446;DHT22;5779;64.178;15.432;2023-09-12T10:34:20;12.90;99.90
11446;DHT22;5779;64.178;15.432;2023-09-12T10:37:07;13.10;99.90
11446;DHT22;5779;64.178;15.432;2023-09-12T10:39:56;13.10;99.90
11446;DHT22;5779;64.178;15.432;2023-09-12T10:42:44;13.20;99.90
11446;DHT22;5779;64.178;15.432;2023-09-12T10:45:37;13.30;99.90
11446;DHT22;5779;64.178;15.432;2023-09-12T10:48:27;13.20;99.90
11446;DHT22;5779;64.178;15.432;2023-09-12T10:51:20;13.30;99.90
11446;DHT22;5779;64.178;15.432;2023-09-12T10:54:09;13.30;99.90
11446;DHT22;5779;64.178;15.432;2023-09-12T10:57:05;13.30;99.90
11446;DHT22;5779;64.178;15.432;2023-09-12T11:00:12;13.30;99.90
11446;DHT22;5779;64.178;15.432;2023-09-12T11:03:37;13.40;99.90
11446;DHT22;5779;64.178;15.432;2023-09-12T11:06:29;13.40;99.90
11446;DHT22;5779;64.178;15.432;2023-09-12T11:09:17;13.50;99.90
11446;DHT22;5779;64.178;15.432;2023-09-12T11:12:05;13.50;99.90
11446;DHT22;5779;64.178;15.432;2023-09-12T11:15:05;13.40;99.90
11446;DHT22;5779;64.178;15.432;2023-09-12T11:18:01;13.20;99.90
11446;DHT22;5779;64.178;15.432;2023-09-12T11:20:52;13.20;99.90
11446;DHT22;5779;64.178;15.432;2023-09-12T11:23:40;13.40;99.90
11446;DHT22;5779;64.178;15.432;2023-09-12T11:26:30;13.60;99.90
11446;DHT22;5779;64.178;15.432;2023-09-12T11:29:17;13.70;99.90
11446;DHT22;5779;64.178;15.432;2023-09-12T11:32:05;13.70;99.90
11446;DHT22;5779;64.178;15.432;2023-09-12T11:34:52;14.00;99.90
11446;DHT22;5779;64.178;15.432;2023-09-12T11:37:48;13.90;99.90
11446;DHT22;5779;64.178;15.432;2023-09-12T11:40:44;13.60;99.90
11446;DHT22;5779;64.178;15.432;2023-09-12T11:43:33;13.30;99.90
11446;DHT22;5779;64.178;15.432;2023-09-12T11:46:24;13.10;99.90
11446;DHT22;5779;64.178;15.432;2023-09-12T11:49:12;13.10;99.90
11446;DHT22;5779;64.178;15.432;2023-09-12T11:51:59;13.10;99.90
11446;DHT22;5779;64.178;15.432;2023-09-12T11:54:48;13.00;99.90
11446;DHT22;5779;64.178;15.432;2023-09-12T11:57:34;12.90;99.90
11446;DHT22;5779;64.178;15.432;2023-09-12T12:00:21;13.00;99.90
11446;DHT22;5779;64.178;15.432;2023-09-12T12:03:15;13.00;99.90
11446;DHT22;5779;64.178;15.432;2023-09-12T12:06:04;13.00;99.90
11446;DHT22;5779;64.178;15.432;2023-09-12T12:08:56;13.00;99.90
11446;DHT22;5779;64.178;15.432;2023-09-12T12:11:45;12.90;99.90
11446;DHT22;5779;64.178;15.432;2023-09-12T12:14:34;13.00;99.90
11446;DHT22;5779;64.178;15.432;2023-09-12T12:17:21;13.00;99.90
11446;DHT22;5779;64.178;15.432;2023-09-12T12:20:09;13.10;99.90
11446;DHT22;5779;64.178;15.432;2023-09-12T12:22:56;13.10;99.90
11446;DHT22;5779;64.178;15.432;2023-09-12T12:25:43;13.00;99.90
11446;DHT22;5779;64.178;15.432;2023-09-12T12:28:32;13.00;99.90
11446;DHT22;5779;64.178;15.432;2023-09-12T12:31:19;13.10;99.90
11446;DHT22;5779;64.178;15.432;2023-09-12T12:34:09;13.00;99.90
11446;DHT22;5779;64.178;15.432;2023-09-12T12:36:56;13.10;99.90
11446;DHT22;5779;64.178;15.432;2023-09-12T12:39:43;13.20;99.90
11446;DHT22;5779;64.178;15.432;2023-09-12T12:42:34;13.30;99.90
11446;DHT22;5779;64.178;15.432;2023-09-12T12:45:23;13.40;99.90
11446;DHT22;5779;64.178;15.432;2023-09-12T12:48:11;13.40;99.90
11446;DHT22;5779;64.178;15.432;2023-09-12T12:50:58;13.30;99.90
11446;DHT22;5779;64.178;15.432;2023-09-12T12:53:46;13.60;99.90
11446;DHT22;5779;64.178;15.432;2023-09-12T12:56:35;13.70;99.90
11446;DHT22;5779;64.178;15.432;2023-09-12T12:59:21;13.80;99.90
11446;DHT22;5779;64.178;15.432;2023-09-12T13:02:10;13.90;99.90
11446;DHT22;5779;64.178;15.432;2023-09-12T13:04:57;13.90;99.90
11446;DHT22;5779;64.178;15.432;2023-09-12T13:07:44;13.90;99.90
11446;DHT22;5779;64.178;15.432;2023-09-12T13:10:31;13.90;99.90
11446;DHT22;5779;64.178;15.432;2023-09-12T13:13:18;13.80;99.90
11446;DHT22;5779;64.178;15.432;2023-09-12T13:16:05;13.70;99.90
11446;DHT22;5779;64.178;15.432;2023-09-12T13:18:55;13.70;99.90
11446;DHT22;5779;64.178;15.432;2023-09-12T13:21:42;13.90;99.90
11446;DHT22;5779;64.178;15.432;2023-09-12T13:24:29;13.90;99.90
11446;DHT22;5779;64.178;15.432;2023-09-12T13:27:16;13.90;99.90
11446;DHT22;5779;64.178;15.432;2023-09-12T13:30:04;13.80;99.90
11446;DHT22;5779;64.178;15.432;2023-09-12T13:32:51;13.80;99.90
11446;DHT22;5779;64.178;15.432;2023-09-12T13:35:39;13.90;99.90
11446;DHT22;5779;64.178;15.432;2023-09-12T13:38:26;13.90;99.90
11446;DHT22;5779;64.178;15.432;2023-09-12T13:41:13;13.90;99.90
11446;DHT22;5779;64.178;15.432;2023-09-12T13:43:59;14.30;99.90
11446;DHT22;5779;64.178;15.432;2023-09-12T13:46:46;14.10;99.90
11446;DHT22;5779;64.178;15.432;2023-09-12T13:49:33;14.30;99.90
11446;DHT22;5779;64.178;15.432;2023-09-12T13:52:22;14.60;99.90
11446;DHT22;5779;64.178;15.432;2023-09-12T13:55:09;14.30;99.90
11446;DHT22;5779;64.178;15.432;2023-09-12T13:57:59;14.30;99.90
11446;DHT22;5779;64.178;15.432;2023-09-12T14:00:45;14.20;99.90
11446;DHT22;5779;64.178;15.432;2023-09-12T14:03:32;14.50;99.90
11446;DHT22;5779;64.178;15.432;2023-09-12T14:06:19;14.50;99.90
11446;DHT22;5779;64.178;15.432;2023-09-12T14:09:07;14.50;99.90
11446;DHT22;5779;64.178;15.432;2023-09-12T14:11:54;14.40;99.90
11446;DHT22;5779;64.178;15.432;2023-09-12T14:14:41;14.40;99.90
11446;DHT22;5779;64.178;15.432;2023-09-12T14:17:28;14.50;99.90
11446;DHT22;5779;64.178;15.432;2023-09-12T14:20:15;14.40;99.90
11446;DHT22;5779;64.178;15.432;2023-09-12T14:23:02;14.30;99.90
11446;DHT22;5779;64.178;15.432;2023-09-12T14:25:51;14.50;99.90
11446;DHT22;5779;64.178;15.432;2023-09-12T14:28:37;14.40;99.90
11446;DHT22;5779;64.178;15.432;2023-09-12T14:31:24;14.80;99.90
11446;DHT22;5779;64.178;15.432;2023-09-12T14:34:11;14.40;99.90
11446;DHT22;5779;64.178;15.432;2023-09-12T14:36:59;14.40;99.90
11446;DHT22;5779;64.178;15.432;2023-09-12T14:39:46;14.40;99.90
11446;DHT22;5779;64.178;15.432;2023-09-12T14:42:34;14.30;99.90
11446;DHT22;5779;64.178;15.432;2023-09-12T14:45:21;14.30;99.90
11446;DHT22;5779;64.178;15.432;2023-09-12T14:48:10;14.40;99.90
11446;DHT22;5779;64.178;15.432;2023-09-12T14:50:57;14.50;99.90
11446;DHT22;5779;64.178;15.432;2023-09-12T14:53:44;14.60;99.90
11446;DHT22;5779;64.178;15.432;2023-09-12T14:56:32;14.50;99.90
11446;DHT22;5779;64.178;15.432;2023-09-12T14:59:21;14.10;99.90
11446;DHT22;5779;64.178;15.432;2023-09-12T15:02:07;14.20;99.90
11446;DHT22;5779;64.178;15.432;2023-09-12T15:04:54;14.20;99.90
11446;DHT22;5779;64.178;15.432;2023-09-12T15:07:41;14.40;99.90
11446;DHT22;5779;64.178;15.432;2023-09-12T15:10:28;14.30;99.90
11446;DHT22;5779;64.178;15.432;2023-09-12T15:13:15;14.60;99.90
11446;DHT22;5779;64.178;15.432;2023-09-12T15:16:03;14.60;99.90
11446;DHT22;5779;64.178;15.432;2023-09-12T15:18:53;14.20;99.90
11446;DHT22;5779;64.178;15.432;2023-09-12T15:21:40;14.20;99.90
11446;DHT22;5779;64.178;15.432;2023-09-12T15:24:27;14.20;99.90
11446;DHT22;5779;64.178;15.432;2023-09-12T15:27:14;14.00;99.90
11446;DHT22;5779;64.178;15.432;2023-09-12T15:30:00;13.80;99.90
11446;DHT22;5779;64.178;15.432;2023-09-12T15:32:49;13.60;99.90
11446;DHT22;5779;64.178;15.432;2023-09-12T15:35:36;13.70;99.90
11446;DHT22;5779;64.178;15.432;2023-09-12T15:38:22;13.80;99.90
11446;DHT22;5779;64.178;15.432;2023-09-12T15:41:09;13.90;99.90
11446;DHT22;5779;64.178;15.432;2023-09-12T15:43:57;13.90;99.90
11446;DHT22;5779;64.178;15.432;2023-09-12T15:46:43;14.00;99.90
11446;DHT22;5779;64.178;15.432;2023-09-12T15:49:32;14.50;99.90
11446;DHT22;5779;64.178;15.432;2023-09-12T15:52:19;15.20;99.90
11446;DHT22;5779;64.178;15.432;2023-09-12T15:55:06;15.70;99.90
11446;DHT22;5779;64.178;15.432;2023-09-12T15:57:53;15.60;99.90
11446;DHT22;5779;64.178;15.432;2023-09-12T16:00:40;14.90;99.90
11446;DHT22;5779;64.178;15.432;2023-09-12T16:03:27;14.50;99.90
11446;DHT22;5779;64.178;15.432;2023-09-12T16:06:15;14.70;99.90
11446;DHT22;5779;64.178;15.432;2023-09-12T16:09:02;14.70;99.90
11446;DHT22;5779;64.178;15.432;2023-09-12T16:11:50;14.30;99.90
11446;DHT22;5779;64.178;15.432;2023-09-12T16:14:37;14.20;99.90
11446;DHT22;5779;64.178;15.432;2023-09-12T16:17:24;14.10;99.90
11446;DHT22;5779;64.178;15.432;2023-09-12T16:20:11;14.30;99.90
11446;DHT22;5779;64.178;15.432;2023-09-12T16:23:00;14.20;99.90
11446;DHT22;5779;64.178;15.432;2023-09-12T16:25:48;14.40;99.90
11446;DHT22;5779;64.178;15.432;2023-09-12T16:28:36;14.60;99.90
11446;DHT22;5779;64.178;15.432;2023-09-12T16:31:23;14.50;99.90
11446;DHT22;5779;64.178;15.432;2023-09-12T16:34:09;13.80;99.90
11446;DHT22;5779;64.178;15.432;2023-09-12T16:36:56;13.80;99.90
11446;DHT22;5779;64.178;15.432;2023-09-12T16:39:45;14.10;99.90
11446;DHT22;5779;64.178;15.432;2023-09-12T16:42:32;14.00;99.90
11446;DHT22;5779;64.178;15.432;2023-09-12T16:45:20;13.60;99.90
11446;DHT22;5779;64.178;15.432;2023-09-12T16:48:07;13.40;99.90
11446;DHT22;5779;64.178;15.432;2023-09-12T16:50:53;13.40;99.90
11446;DHT22;5779;64.178;15.432;2023-09-12T16:53:40;13.10;99.90
11446;DHT22;5779;64.178;15.432;2023-09-12T16:56:29;12.60;99.90
11446;DHT22;5779;64.178;15.432;2023-09-12T16:59:16;12.30;99.90
11446;DHT22;5779;64.178;15.432;2023-09-12T17:02:03;12.10;99.90
11446;DHT22;5779;64.178;15.432;2023-09-12T17:04:50;11.90;99.90
11446;DHT22;5779;64.178;15.432;2023-09-12T17:07:37;11.70;99.90
11446;DHT22;5779;64.178;15.432;2023-09-12T17:10:24;11.60;99.90
11446;DHT22;5779;64.178;15.432;2023-09-12T17:13:13;11.30;99.90
11446;DHT22;5779;64.178;15.432;2023-09-12T17:16:00;11.20;99.90
11446;DHT22;5779;64.178;15.432;2023-09-12T17:18:49;11.00;99.90
11446;DHT22;5779;64.178;15.432;2023-09-12T17:21:36;11.10;99.90
11446;DHT22;5779;64.178;15.432;2023-09-12T17:24:22;11.10;99.90
11446;DHT22;5779;64.178;15.432;2023-09-12T17:27:09;11.10;99.90
11446;DHT22;5779;64.178;15.432;2023-09-12T17:29:57;11.10;99.90
11446;DHT22;5779;64.178;15.432;2023-09-12T17:32:44;11.10;99.90
11446;DHT22;5779;64.178;15.432;2023-09-12T17:35:31;11.20;99.90
11446;DHT22;5779;64.178;15.432;2023-09-12T17:38:18;11.00;99.90
11446;DHT22;5779;64.178;15.432;2023-09-12T17:41:05;10.90;99.90
11446;DHT22;5779;64.178;15.432;2023-09-12T17:43:52;11.00;99.90